Time;durP1;ratioP1;P1;durP2;ratioP2;P2;SDS_P1;SDS_P2;PMS_P1;PMS_P2;Temp;Humidity;BMP_temperature;BMP_pressure;BME280_temperature;BME280_humidity;BME280_pressure;Samples;Min_cycle;Max_cycle;Signal;HPM_P1;HPM_P2
2022/07/07 00:02:08;;;;;;;6.97;3.83;;;;;;;;;;5021836;28;20060;-75
2022/07/07 00:04:33;;;;;;;6.72;3.03;;;;;;;;;;5015734;28;20029;-75
2022/07/07 00:06:59;;;;;;;4.88;3.30;;;;;;;;;;5018954;28;20029;-75
2022/07/07 00:09:25;;;;;;;4.82;2.90;;;;;;;;;;5016869;28;20685;-76
2022/07/07 00:11:50;;;;;;;5.72;3.08;;;;;;;;;;5022159;28;20033;-74
2022/07/07 00:14:16;;;;;;;5.13;3.08;;;;;;;;;;5019456;28;20021;-75
2022/07/07 00:16:41;;;;;;;6.00;3.40;;;;;;;;;;5016113;28;20057;-76
2022/07/07 00:19:07;;;;;;;4.70;3.22;;;;;;;;;;5023594;28;20033;-73
2022/07/07 00:21:32;;;;;;;5.07;3.38;;;;;;;;;;5017721;28;20021;-76
2022/07/07 00:23:58;;;;;;;5.20;3.22;;;;;;;;;;5015296;28;20068;-75
2022/07/07 00:26:23;;;;;;;6.15;3.58;;;;;;;;;;5021934;28;20926;-73
2022/07/07 00:28:49;;;;;;;6.05;3.40;;;;;;;;;;5025402;28;20029;-74
2022/07/07 00:31:15;;;;;;;5.47;3.20;;;;;;;;;;5021707;28;20083;-76
2022/07/07 00:33:40;;;;;;;7.38;3.65;;;;;;;;;;5029044;28;20116;-74
2022/07/07 00:36:07;;;;;;;5.55;3.97;;;;;;;;;;5026845;28;20033;-76
2022/07/07 00:38:33;;;;;;;6.47;3.47;;;;;;;;;;5020429;28;20496;-75
2022/07/07 00:40:58;;;;;;;7.13;4.13;;;;;;;;;;5015187;28;20033;-75
2022/07/07 00:43:24;;;;;;;5.65;3.50;;;;;;;;;;5020287;28;20029;-76
2022/07/07 00:45:51;;;;;;;6.13;3.10;;;;;;;;;;5025321;28;20029;-73
2022/07/07 00:48:20;;;;;;;5.85;3.47;;;;;;;;;;5024422;28;20385;-75
2022/07/07 00:50:47;;;;;;;5.85;3.63;;;;;;;;;;5024552;28;20104;-74
2022/07/07 00:53:14;;;;;;;5.60;3.55;;;;;;;;;;5020006;28;20052;-76
2022/07/07 00:55:40;;;;;;;6.72;3.55;;;;;;;;;;5027084;28;20100;-76
2022/07/07 00:58:06;;;;;;;7.70;3.92;;;;;;;;;;5024704;28;20108;-75
2022/07/07 01:00:32;;;;;;;6.68;3.75;;;;;;;;;;5024157;28;20036;-76
2022/07/07 01:02:57;;;;;;;5.57;3.28;;;;;;;;;;5023454;28;20025;-76
2022/07/07 01:05:23;;;;;;;4.93;3.17;;;;;;;;;;5026218;28;20045;-76
2022/07/07 01:07:51;;;;;;;5.03;3.17;;;;;;;;;;5025283;28;20493;-76
2022/07/07 01:10:17;;;;;;;5.05;3.33;;;;;;;;;;5021801;28;20030;-74
2022/07/07 01:12:42;;;;;;;6.00;3.78;;;;;;;;;;5021589;28;20022;-75
2022/07/07 01:15:10;;;;;;;5.65;3.20;;;;;;;;;;5016751;28;20026;-76
2022/07/07 01:17:35;;;;;;;5.75;2.80;;;;;;;;;;5021658;28;20029;-76
2022/07/07 01:20:02;;;;;;;6.65;3.50;;;;;;;;;;5025246;28;20401;-74
2022/07/07 01:22:31;;;;;;;6.15;3.15;;;;;;;;;;5022865;28;20057;-73
2022/07/07 01:24:57;;;;;;;5.20;3.28;;;;;;;;;;5023819;28;20017;-73
2022/07/07 01:27:22;;;;;;;5.18;2.97;;;;;;;;;;5027449;28;20029;-73
2022/07/07 01:29:50;;;;;;;4.53;2.90;;;;;;;;;;5024523;28;20053;-74
2022/07/07 01:32:16;;;;;;;5.57;3.00;;;;;;;;;;5018713;28;20033;-75
2022/07/07 01:34:43;;;;;;;6.78;2.60;;;;;;;;;;5027002;28;20084;-73
2022/07/07 01:37:10;;;;;;;4.68;2.88;;;;;;;;;;5020094;28;20483;-76
2022/07/07 01:39:36;;;;;;;6.68;2.72;;;;;;;;;;5026437;28;20036;-76
2022/07/07 01:42:03;;;;;;;5.00;2.60;;;;;;;;;;5018405;28;20033;-76
2022/07/07 01:44:32;;;;;;;4.60;2.75;;;;;;;;;;5019588;28;20036;-75
2022/07/07 01:46:58;;;;;;;5.45;3.00;;;;;;;;;;5020830;28;20474;-75
2022/07/07 01:49:24;;;;;;;3.70;2.38;;;;;;;;;;5026824;28;20108;-76
2022/07/07 01:51:50;;;;;;;4.65;2.60;;;;;;;;;;5021352;28;20032;-75
2022/07/07 01:54:15;;;;;;;6.15;2.88;;;;;;;;;;5028018;28;20030;-74
2022/07/07 01:56:40;;;;;;;5.57;2.95;;;;;;;;;;5021146;28;20024;-73
2022/07/07 01:59:06;;;;;;;4.75;2.47;;;;;;;;;;5022910;28;20112;-73
2022/07/07 02:01:32;;;;;;;4.63;2.58;;;;;;;;;;5022777;28;20017;-75
2022/07/07 02:03:57;;;;;;;4.38;2.38;;;;;;;;;;5022796;28;20125;-75
2022/07/07 02:06:23;;;;;;;4.75;2.40;;;;;;;;;;5016856;28;20029;-76
2022/07/07 02:08:48;;;;;;;6.25;2.38;;;;;;;;;;5023915;28;20382;-75
2022/07/07 02:11:13;;;;;;;6.40;2.67;;;;;;;;;;5022106;28;20124;-75
2022/07/07 02:13:44;;;;;;;3.10;1.80;;;;;;;;;;5026632;28;20022;-74
2022/07/07 02:16:12;;;;;;;3.65;1.92;;;;;;;;;;5026245;28;20132;-76
2022/07/07 02:18:38;;;;;;;2.65;1.90;;;;;;;;;;5023592;28;20623;-76
2022/07/07 02:21:05;;;;;;;3.80;1.60;;;;;;;;;;5025016;28;20043;-76
2022/07/07 02:23:31;;;;;;;3.17;1.73;;;;;;;;;;5022003;28;20161;-76
2022/07/07 02:25:57;;;;;;;2.78;1.60;;;;;;;;;;5024917;28;20037;-76
2022/07/07 02:28:23;;;;;;;3.58;1.50;;;;;;;;;;5024857;28;20025;-74
2022/07/07 02:30:56;;;;;;;3.38;1.40;;;;;;;;;;5016928;28;20049;-75
2022/07/07 02:33:22;;;;;;;2.85;1.40;;;;;;;;;;5015083;28;20037;-75
2022/07/07 02:35:48;;;;;;;3.65;1.30;;;;;;;;;;5020568;28;20091;-76
2022/07/07 02:38:14;;;;;;;2.58;1.35;;;;;;;;;;5021751;28;20033;-73
2022/07/07 02:40:40;;;;;;;2.88;1.10;;;;;;;;;;5026231;28;20035;-73
2022/07/07 02:43:05;;;;;;;2.50;1.40;;;;;;;;;;5021946;28;20044;-75
2022/07/07 02:45:30;;;;;;;2.70;1.15;;;;;;;;;;5023763;28;20029;-75
2022/07/07 02:47:56;;;;;;;1.30;0.98;;;;;;;;;;5024197;28;20044;-74
2022/07/07 02:50:22;;;;;;;2.15;1.10;;;;;;;;;;5024707;28;20029;-75
2022/07/07 02:52:48;;;;;;;1.60;1.10;;;;;;;;;;5021431;28;20072;-73
2022/07/07 02:55:13;;;;;;;3.35;1.27;;;;;;;;;;5017048;28;20065;-73
2022/07/07 02:57:39;;;;;;;2.65;1.20;;;;;;;;;;5021468;28;20025;-76
2022/07/07 03:00:08;;;;;;;2.72;1.15;;;;;;;;;;5017823;28;20432;-74
2022/07/07 03:02:35;;;;;;;2.70;1.33;;;;;;;;;;5024889;28;20132;-76
2022/07/07 03:05:00;;;;;;;3.05;1.30;;;;;;;;;;5018714;28;20501;-74
2022/07/07 03:07:26;;;;;;;2.05;1.05;;;;;;;;;;5024767;28;20021;-74
2022/07/07 03:09:51;;;;;;;2.35;1.30;;;;;;;;;;5018717;28;20025;-75
2022/07/07 03:12:16;;;;;;;3.92;1.40;;;;;;;;;;5024203;28;20033;-77
2022/07/07 03:14:42;;;;;;;6.40;1.35;;;;;;;;;;5025623;28;21371;-74
2022/07/07 03:17:07;;;;;;;2.03;1.25;;;;;;;;;;5023896;28;20592;-75
2022/07/07 03:19:34;;;;;;;3.13;1.40;;;;;;;;;;5017551;28;20029;-74
2022/07/07 03:22:01;;;;;;;2.97;1.70;;;;;;;;;;5017179;28;20021;-76
2022/07/07 03:24:27;;;;;;;3.58;1.70;;;;;;;;;;5020129;28;20541;-76
2022/07/07 03:26:53;;;;;;;3.28;1.50;;;;;;;;;;5014705;28;20025;-74
2022/07/07 03:29:18;;;;;;;3.60;1.70;;;;;;;;;;5018003;28;20025;-73
2022/07/07 03:31:43;;;;;;;2.53;1.67;;;;;;;;;;5019486;28;20065;-74
2022/07/07 03:34:09;;;;;;;2.83;1.90;;;;;;;;;;5023074;28;20028;-73
2022/07/07 03:36:34;;;;;;;3.55;1.98;;;;;;;;;;5018214;28;20474;-73
2022/07/07 03:38:59;;;;;;;5.10;1.90;;;;;;;;;;5022691;28;20536;-74
2022/07/07 03:41:25;;;;;;;3.65;2.00;;;;;;;;;;5020376;28;20025;-74
2022/07/07 03:43:50;;;;;;;3.72;1.80;;;;;;;;;;5024119;28;20037;-75
2022/07/07 03:46:15;;;;;;;4.05;2.33;;;;;;;;;;5018060;28;20505;-74
2022/07/07 03:48:41;;;;;;;4.30;1.90;;;;;;;;;;5020452;28;20033;-75
2022/07/07 03:51:07;;;;;;;4.80;2.00;;;;;;;;;;5020309;28;20036;-73
2022/07/07 03:53:32;;;;;;;3.83;2.20;;;;;;;;;;5022261;28;20053;-73
2022/07/07 03:55:58;;;;;;;3.25;2.10;;;;;;;;;;5017732;28;20038;-74
2022/07/07 03:58:23;;;;;;;4.75;2.00;;;;;;;;;;5017704;28;20052;-74
2022/07/07 04:00:48;;;;;;;5.82;1.90;;;;;;;;;;5017573;28;20017;-73
2022/07/07 04:03:14;;;;;;;3.42;1.90;;;;;;;;;;5020763;28;20034;-75
2022/07/07 04:05:39;;;;;;;4.03;2.03;;;;;;;;;;5022883;28;20396;-73
2022/07/07 04:08:04;;;;;;;3.58;1.88;;;;;;;;;;5022296;28;20138;-76
2022/07/07 04:10:30;;;;;;;4.20;1.90;;;;;;;;;;5019172;28;20026;-74
2022/07/07 04:12:55;;;;;;;3.85;2.03;;;;;;;;;;5021191;28;20037;-75
2022/07/07 04:15:20;;;;;;;3.72;2.08;;;;;;;;;;5023713;28;20374;-73
2022/07/07 04:17:46;;;;;;;3.35;1.65;;;;;;;;;;5018235;28;20186;-75
2022/07/07 04:20:11;;;;;;;3.58;1.80;;;;;;;;;;5016767;28;20032;-75
2022/07/07 04:22:37;;;;;;;3.90;2.00;;;;;;;;;;5018820;28;20565;-73
2022/07/07 04:25:03;;;;;;;2.80;1.70;;;;;;;;;;5017425;28;20033;-75
2022/07/07 04:27:29;;;;;;;4.50;1.77;;;;;;;;;;5020249;28;20044;-76
2022/07/07 04:29:54;;;;;;;2.88;1.60;;;;;;;;;;5023461;28;20087;-76
2022/07/07 04:32:20;;;;;;;3.63;1.52;;;;;;;;;;5021868;28;20029;-75
2022/07/07 04:34:45;;;;;;;2.55;1.30;;;;;;;;;;5017191;28;20063;-75
2022/07/07 04:37:10;;;;;;;2.17;1.30;;;;;;;;;;5021665;28;20029;-74
2022/07/07 04:39:36;;;;;;;2.95;1.20;;;;;;;;;;5021430;28;20044;-75
2022/07/07 04:42:01;;;;;;;2.33;1.00;;;;;;;;;;5024029;28;20029;-76
2022/07/07 04:44:26;;;;;;;3.60;0.88;;;;;;;;;;5021585;28;20492;-73
2022/07/07 04:46:52;;;;;;;3.08;0.85;;;;;;;;;;5022153;28;20038;-76
2022/07/07 04:49:18;;;;;;;4.25;0.90;;;;;;;;;;5015285;28;20478;-75
2022/07/07 04:51:43;;;;;;;4.32;1.00;;;;;;;;;;5016709;28;20489;-74
2022/07/07 04:54:08;;;;;;;4.15;0.93;;;;;;;;;;5018065;28;20033;-76
2022/07/07 04:56:34;;;;;;;4.82;0.80;;;;;;;;;;5018669;28;20037;-76
2022/07/07 04:58:59;;;;;;;2.47;0.80;;;;;;;;;;5016980;28;20036;-74
2022/07/07 05:01:24;;;;;;;3.17;0.98;;;;;;;;;;5017480;28;20035;-76
2022/07/07 05:03:50;;;;;;;1.33;0.70;;;;;;;;;;5007823;28;20035;-74
2022/07/07 05:06:15;;;;;;;4.38;1.63;;;;;;;;;;5023312;28;20063;-74
2022/07/07 05:08:41;;;;;;;4.53;1.02;;;;;;;;;;5015157;28;20029;-75
2022/07/07 05:11:06;;;;;;;3.13;1.08;;;;;;;;;;5024269;28;20090;-76
2022/07/07 05:13:32;;;;;;;3.45;0.95;;;;;;;;;;5018547;28;20025;-75
2022/07/07 05:15:57;;;;;;;4.38;1.13;;;;;;;;;;5020951;28;20433;-76
2022/07/07 05:18:22;;;;;;;3.58;1.20;;;;;;;;;;5021710;28;20101;-75
2022/07/07 05:20:48;;;;;;;4.75;1.38;;;;;;;;;;5018740;28;20025;-74
2022/07/07 05:23:13;;;;;;;5.20;1.00;;;;;;;;;;5023402;28;20041;-75
2022/07/07 05:25:39;;;;;;;2.60;1.17;;;;;;;;;;5015591;28;20131;-74
2022/07/07 05:28:04;;;;;;;3.10;0.98;;;;;;;;;;5021368;28;20017;-76
2022/07/07 05:30:30;;;;;;;3.90;0.95;;;;;;;;;;5017294;28;20041;-74
2022/07/07 05:32:55;;;;;;;8.65;1.20;;;;;;;;;;5022049;28;20117;-76
2022/07/07 05:35:20;;;;;;;4.18;1.00;;;;;;;;;;5014877;28;20080;-77
2022/07/07 05:37:46;;;;;;;6.03;1.33;;;;;;;;;;5020708;28;20504;-73
2022/07/07 05:40:12;;;;;;;4.75;0.90;;;;;;;;;;5023225;28;20026;-73
2022/07/07 05:42:38;;;;;;;3.95;0.77;;;;;;;;;;5024076;28;20049;-76
2022/07/07 05:45:04;;;;;;;4.68;0.82;;;;;;;;;;5027178;28;20021;-76
2022/07/07 05:47:30;;;;;;;2.03;0.70;;;;;;;;;;5023952;28;20048;-75
2022/07/07 05:49:56;;;;;;;6.47;0.82;;;;;;;;;;5020799;28;20029;-76
2022/07/07 05:52:21;;;;;;;2.95;0.77;;;;;;;;;;5019174;28;20382;-74
2022/07/07 05:54:46;;;;;;;2.70;0.70;;;;;;;;;;5023265;28;20450;-76
2022/07/07 05:57:12;;;;;;;5.00;0.90;;;;;;;;;;5019059;28;20087;-75
2022/07/07 05:59:37;;;;;;;6.63;1.15;;;;;;;;;;5023079;28;20108;-75
2022/07/07 06:02:03;;;;;;;4.05;0.70;;;;;;;;;;5020768;28;20171;-75
2022/07/07 06:04:28;;;;;;;5.30;0.93;;;;;;;;;;5025204;28;20026;-75
2022/07/07 06:06:53;;;;;;;5.32;0.82;;;;;;;;;;5021310;28;20048;-73
2022/07/07 06:09:19;;;;;;;4.93;1.10;;;;;;;;;;5020351;28;20029;-76
2022/07/07 06:11:45;;;;;;;8.30;1.02;;;;;;;;;;5019697;28;20030;-75
2022/07/07 06:14:10;;;;;;;6.53;1.55;;;;;;;;;;5024058;28;22966;-74
2022/07/07 06:16:38;;;;;;;4.05;0.93;;;;;;;;;;5020191;28;20037;-73
2022/07/07 06:19:08;;;;;;;2.85;0.63;;;;;;;;;;5018966;28;20104;-75
2022/07/07 06:21:34;;;;;;;6.03;0.95;;;;;;;;;;5015211;28;20022;-74
2022/07/07 06:23:59;;;;;;;6.65;0.90;;;;;;;;;;5010412;28;20026;-76
2022/07/07 06:26:25;;;;;;;6.30;1.20;;;;;;;;;;5017250;28;20032;-75
2022/07/07 06:28:50;;;;;;;3.58;0.90;;;;;;;;;;5017231;28;20034;-74
2022/07/07 06:31:15;;;;;;;5.22;0.77;;;;;;;;;;5022695;28;20078;-74
2022/07/07 06:33:41;;;;;;;3.25;1.00;;;;;;;;;;5025116;28;20485;-75
2022/07/07 06:36:07;;;;;;;2.45;0.63;;;;;;;;;;5023191;28;20033;-75
2022/07/07 06:38:33;;;;;;;7.07;1.02;;;;;;;;;;5018705;28;20485;-76
2022/07/07 06:40:59;;;;;;;4.50;0.80;;;;;;;;;;5018758;28;20124;-76
2022/07/07 06:43:25;;;;;;;4.43;0.80;;;;;;;;;;5023990;28;20033;-74
2022/07/07 06:45:51;;;;;;;5.32;0.65;;;;;;;;;;5024179;28;20033;-76
2022/07/07 06:48:17;;;;;;;4.22;0.73;;;;;;;;;;5026027;28;20033;-75
2022/07/07 06:50:42;;;;;;;3.97;0.75;;;;;;;;;;5027304;28;20741;-74
2022/07/07 06:53:08;;;;;;;3.00;0.70;;;;;;;;;;5020948;28;20033;-74
2022/07/07 06:55:33;;;;;;;3.17;0.70;;;;;;;;;;5016169;28;20491;-74
2022/07/07 06:57:59;;;;;;;3.03;0.70;;;;;;;;;;5020261;28;20041;-76
2022/07/07 07:00:24;;;;;;;2.53;0.63;;;;;;;;;;5014147;28;20079;-74
2022/07/07 07:02:50;;;;;;;3.38;0.70;;;;;;;;;;5022730;28;20036;-74
2022/07/07 07:05:16;;;;;;;1.48;0.50;;;;;;;;;;5027453;28;20043;-74
2022/07/07 07:07:42;;;;;;;2.17;0.68;;;;;;;;;;5026508;28;20437;-76
2022/07/07 07:10:08;;;;;;;2.58;0.47;;;;;;;;;;5016218;28;20039;-75
2022/07/07 07:12:34;;;;;;;2.40;0.60;;;;;;;;;;5017857;28;21006;-76
2022/07/07 07:14:59;;;;;;;3.38;0.60;;;;;;;;;;5008961;28;20037;-76
2022/07/07 07:17:25;;;;;;;2.97;0.63;;;;;;;;;;5013789;28;20025;-73
2022/07/07 07:19:51;;;;;;;5.15;0.73;;;;;;;;;;5019373;28;20132;-76
2022/07/07 07:22:17;;;;;;;3.33;0.70;;;;;;;;;;5018575;28;20100;-76
2022/07/07 07:24:43;;;;;;;2.65;0.98;;;;;;;;;;5018159;28;20525;-74
2022/07/07 07:27:08;;;;;;;2.42;0.80;;;;;;;;;;5018194;28;20036;-74
2022/07/07 07:29:34;;;;;;;3.95;0.90;;;;;;;;;;5016482;28;20040;-75
2022/07/07 07:31:59;;;;;;;1.85;0.63;;;;;;;;;;5020568;28;20036;-76
2022/07/07 07:34:24;;;;;;;3.88;1.20;;;;;;;;;;5017952;28;20022;-76
2022/07/07 07:36:50;;;;;;;1.65;0.68;;;;;;;;;;5038873;28;20040;-76
2022/07/07 07:39:15;;;;;;;4.20;0.93;;;;;;;;;;5017483;28;20392;-75
2022/07/07 07:41:41;;;;;;;3.25;0.60;;;;;;;;;;5012953;28;20040;-76
2022/07/07 07:44:06;;;;;;;2.28;0.55;;;;;;;;;;5020077;28;20025;-74
2022/07/07 07:46:31;;;;;;;2.65;0.70;;;;;;;;;;5015576;28;20044;-76
2022/07/07 07:48:59;;;;;;;3.20;0.80;;;;;;;;;;5022848;28;20456;-74
2022/07/07 07:51:25;;;;;;;2.88;0.70;;;;;;;;;;5020577;28;20033;-75
2022/07/07 07:53:50;;;;;;;4.22;0.73;;;;;;;;;;5013937;28;20029;-75
2022/07/07 07:56:15;;;;;;;2.45;0.88;;;;;;;;;;5020550;28;20067;-76
2022/07/07 07:58:41;;;;;;;4.13;0.80;;;;;;;;;;5018733;28;20033;-75
2022/07/07 08:01:06;;;;;;;4.18;0.90;;;;;;;;;;5015378;28;20081;-75
2022/07/07 08:03:31;;;;;;;3.45;0.75;;;;;;;;;;5012732;28;20029;-76
2022/07/07 08:05:57;;;;;;;6.25;0.98;;;;;;;;;;5025481;28;20036;-74
2022/07/07 08:08:22;;;;;;;3.72;0.95;;;;;;;;;;5025487;28;20021;-76
2022/07/07 08:10:48;;;;;;;2.95;0.80;;;;;;;;;;5024840;28;20025;-76
2022/07/07 08:13:13;;;;;;;3.13;1.08;;;;;;;;;;5020998;28;20037;-76
2022/07/07 08:15:38;;;;;;;6.55;1.02;;;;;;;;;;5023044;28;20022;-74
2022/07/07 08:18:04;;;;;;;4.95;1.00;;;;;;;;;;5017778;28;20060;-76
2022/07/07 08:20:30;;;;;;;3.20;1.00;;;;;;;;;;5022041;28;20094;-76
2022/07/07 08:22:55;;;;;;;3.83;0.90;;;;;;;;;;5022445;28;20040;-75
2022/07/07 08:25:21;;;;;;;2.17;0.85;;;;;;;;;;5020437;28;20030;-73
2022/07/07 08:27:47;;;;;;;2.83;1.00;;;;;;;;;;5019788;28;20033;-76
2022/07/07 08:30:13;;;;;;;2.92;0.90;;;;;;;;;;5025546;28;20053;-73
2022/07/07 08:32:39;;;;;;;3.15;0.80;;;;;;;;;;5023599;28;20417;-74
2022/07/07 08:35:05;;;;;;;3.75;0.77;;;;;;;;;;5019185;28;20057;-74
2022/07/07 08:37:31;;;;;;;1.90;0.52;;;;;;;;;;5017349;28;20064;-73
2022/07/07 08:39:56;;;;;;;3.05;0.60;;;;;;;;;;5018677;28;20541;-76
2022/07/07 08:42:22;;;;;;;4.63;0.80;;;;;;;;;;5024075;28;20072;-74
2022/07/07 08:44:47;;;;;;;3.97;0.77;;;;;;;;;;5020183;28;20124;-75
2022/07/07 08:47:13;;;;;;;5.35;1.20;;;;;;;;;;5017396;28;20029;-74
2022/07/07 08:49:39;;;;;;;2.05;0.57;;;;;;;;;;5014828;28;20037;-76
2022/07/07 08:52:05;;;;;;;2.35;0.65;;;;;;;;;;5011602;28;20039;-75
2022/07/07 08:54:32;;;;;;;1.77;0.65;;;;;;;;;;5023792;28;20025;-76
2022/07/07 08:56:57;;;;;;;4.72;0.80;;;;;;;;;;5018531;28;20030;-75
2022/07/07 08:59:23;;;;;;;2.38;0.60;;;;;;;;;;5021075;28;20084;-76
2022/07/07 09:01:56;;;;;;;4.70;0.73;;;;;;;;;;5026584;28;20029;-75
2022/07/07 09:04:22;;;;;;;2.38;0.47;;;;;;;;;;5022141;28;20359;-76
2022/07/07 09:07:03;;;;;;;1.02;0.50;;;;;;;;;;5014982;28;20698;-75
2022/07/07 09:09:45;;;;;;;1.40;0.45;;;;;;;;;;5012928;28;20623;-73
2022/07/07 09:12:13;;;;;;;2.20;0.63;;;;;;;;;;5018981;28;20037;-74
2022/07/07 09:14:50;;;;;;;1.13;0.45;;;;;;;;;;5018394;28;20029;-75
2022/07/07 09:17:24;;;;;;;3.60;0.52;;;;;;;;;;5016813;28;20068;-75
2022/07/07 09:20:04;;;;;;;3.13;0.98;;;;;;;;;;5019155;28;20032;-75
2022/07/07 09:22:57;;;;;;;3.67;0.75;;;;;;;;;;5010500;28;20083;-76
2022/07/07 09:25:24;;;;;;;2.97;0.70;;;;;;;;;;5023169;28;20033;-74
2022/07/07 09:27:55;;;;;;;2.90;0.82;;;;;;;;;;5017364;28;20040;-74
2022/07/07 09:30:37;;;;;;;4.38;1.05;;;;;;;;;;5023764;28;20049;-74
2022/07/07 09:33:23;;;;;;;2.90;0.77;;;;;;;;;;5021522;28;20398;-75
2022/07/07 09:38:35;;;;;;;3.38;0.77;;;;;;;;;;5020883;28;20037;-76
2022/07/07 09:41:12;;;;;;;2.42;0.57;;;;;;;;;;5020448;28;20576;-74
2022/07/07 09:43:48;;;;;;;2.05;0.50;;;;;;;;;;5012848;28;20030;-75
2022/07/07 09:46:22;;;;;;;1.95;0.55;;;;;;;;;;5020389;28;20615;-75
2022/07/07 09:48:59;;;;;;;2.95;0.63;;;;;;;;;;5021547;28;20112;-76
2022/07/07 09:51:29;;;;;;;1.20;0.47;;;;;;;;;;5018979;28;20064;-75
2022/07/07 09:54:00;;;;;;;1.73;0.57;;;;;;;;;;5015062;28;20172;-75
2022/07/07 09:56:47;;;;;;;2.33;0.50;;;;;;;;;;5007858;28;20515;-74
2022/07/07 09:59:19;;;;;;;1.60;0.45;;;;;;;;;;5024245;28;20033;-73
2022/07/07 10:01:46;;;;;;;1.52;0.52;;;;;;;;;;5015397;28;20069;-75
2022/07/07 10:04:13;;;;;;;2.95;0.40;;;;;;;;;;5016990;28;20026;-75
2022/07/07 10:06:41;;;;;;;1.17;0.50;;;;;;;;;;5027130;28;20038;-73
2022/07/07 10:09:11;;;;;;;1.25;0.43;;;;;;;;;;5024963;28;20060;-74
2022/07/07 10:11:45;;;;;;;2.45;0.73;;;;;;;;;;5033295;28;20034;-75
2022/07/07 10:14:16;;;;;;;1.30;0.43;;;;;;;;;;5019896;28;20057;-74
2022/07/07 10:16:44;;;;;;;3.28;0.63;;;;;;;;;;5020260;28;20057;-73
2022/07/07 10:19:11;;;;;;;2.78;0.63;;;;;;;;;;5016091;28;20398;-73
2022/07/07 10:21:40;;;;;;;1.98;0.70;;;;;;;;;;5028146;28;20545;-75
2022/07/07 10:24:06;;;;;;;2.25;0.60;;;;;;;;;;5027284;28;20038;-74
2022/07/07 10:26:40;;;;;;;2.95;0.70;;;;;;;;;;5021356;28;20040;-73
2022/07/07 10:29:08;;;;;;;2.25;0.70;;;;;;;;;;5022899;28;20025;-75
2022/07/07 10:31:34;;;;;;;2.30;0.60;;;;;;;;;;5023125;28;20140;-73
2022/07/07 10:34:02;;;;;;;1.70;0.80;;;;;;;;;;5021834;28;20146;-75
2022/07/07 10:36:47;;;;;;;1.92;0.60;;;;;;;;;;5024875;28;20029;-74
2022/07/07 10:39:13;;;;;;;1.83;0.60;;;;;;;;;;5024656;28;20565;-73
2022/07/07 10:41:59;;;;;;;1.33;0.43;;;;;;;;;;5027832;28;20022;-73
2022/07/07 10:44:24;;;;;;;2.25;0.70;;;;;;;;;;5024376;28;20028;-75
2022/07/07 10:47:25;;;;;;;1.48;0.73;;;;;;;;;;5021970;28;20029;-74
2022/07/07 10:49:53;;;;;;;1.58;0.65;;;;;;;;;;5017832;28;20071;-74
2022/07/07 10:52:21;;;;;;;2.47;0.60;;;;;;;;;;5019910;28;20040;-73
2022/07/07 10:55:12;;;;;;;1.88;0.70;;;;;;;;;;5021739;28;20069;-75
2022/07/07 10:57:43;;;;;;;1.67;0.50;;;;;;;;;;5022095;28;20516;-75
2022/07/07 11:00:34;;;;;;;1.88;0.75;;;;;;;;;;5016982;28;20025;-75
2022/07/07 11:03:19;;;;;;;5.90;0.90;;;;;;;;;;5020489;28;20051;-74
2022/07/07 11:05:45;;;;;;;0.95;0.55;;;;;;;;;;5024669;28;20385;-76
2022/07/07 11:08:11;;;;;;;3.38;1.15;;;;;;;;;;5025309;28;20022;-75
2022/07/07 11:10:40;;;;;;;2.85;1.00;;;;;;;;;;5027711;28;20091;-74
2022/07/07 11:13:35;;;;;;;2.92;1.00;;;;;;;;;;5026929;28;20047;-74
2022/07/07 11:16:21;;;;;;;2.42;0.98;;;;;;;;;;5021401;28;20485;-73
2022/07/07 11:18:55;;;;;;;3.10;0.98;;;;;;;;;;5023480;28;20028;-75
2022/07/07 11:21:39;;;;;;;4.32;1.10;;;;;;;;;;5020843;28;20116;-73
2022/07/07 11:24:23;;;;;;;4.38;1.00;;;;;;;;;;5018983;28;20044;-73
2022/07/07 11:27:03;;;;;;;2.83;1.02;;;;;;;;;;5026454;28;20032;-73
2022/07/07 11:29:31;;;;;;;4.15;1.13;;;;;;;;;;5026307;28;20048;-75
2022/07/07 11:32:04;;;;;;;5.72;1.20;;;;;;;;;;5021937;28;20029;-75
2022/07/07 11:34:44;;;;;;;5.07;1.17;;;;;;;;;;5028120;28;20037;-73
2022/07/07 11:37:25;;;;;;;4.75;1.30;;;;;;;;;;5024131;28;20029;-73
2022/07/07 11:39:51;;;;;;;4.07;1.30;;;;;;;;;;5020271;28;20147;-75
2022/07/07 11:42:16;;;;;;;4.55;0.90;;;;;;;;;;5025154;28;20033;-73
2022/07/07 11:44:42;;;;;;;3.10;0.90;;;;;;;;;;5022392;28;20726;-75
2022/07/07 11:47:07;;;;;;;4.20;1.02;;;;;;;;;;5027213;28;20044;-75
2022/07/07 11:49:33;;;;;;;4.53;1.13;;;;;;;;;;5024533;28;20025;-73
2022/07/07 11:51:58;;;;;;;2.55;0.90;;;;;;;;;;5025438;28;20666;-73
2022/07/07 11:54:23;;;;;;;3.65;1.00;;;;;;;;;;5023843;28;20120;-75
2022/07/07 11:56:49;;;;;;;3.40;0.95;;;;;;;;;;5020566;28;20155;-75
2022/07/07 11:59:14;;;;;;;3.55;0.85;;;;;;;;;;5026023;28;20029;-72
2022/07/07 12:01:43;;;;;;;2.10;0.80;;;;;;;;;;5019852;28;20374;-74
2022/07/07 12:04:21;;;;;;;2.88;0.90;;;;;;;;;;5027890;28;20025;-75
2022/07/07 12:06:47;;;;;;;2.63;0.85;;;;;;;;;;5020086;28;20025;-74
2022/07/07 12:09:13;;;;;;;2.50;0.82;;;;;;;;;;5024928;28;20047;-75
2022/07/07 12:11:40;;;;;;;2.28;0.80;;;;;;;;;;5023558;28;20040;-73
2022/07/07 12:14:08;;;;;;;4.00;0.80;;;;;;;;;;5024849;28;20025;-74
2022/07/07 12:16:49;;;;;;;1.83;0.50;;;;;;;;;;5023222;28;20434;-73
2022/07/07 12:19:15;;;;;;;2.83;0.68;;;;;;;;;;5023579;28;20053;-72
2022/07/07 12:21:48;;;;;;;1.50;0.40;;;;;;;;;;5028729;28;20030;-73
2022/07/07 12:24:15;;;;;;;1.67;0.50;;;;;;;;;;5025364;28;20435;-72
2022/07/07 12:26:51;;;;;;;1.88;0.60;;;;;;;;;;5029527;28;20106;-75
2022/07/07 12:29:21;;;;;;;1.25;0.63;;;;;;;;;;5028037;28;20033;-73
2022/07/07 12:31:48;;;;;;;1.55;0.60;;;;;;;;;;5029899;28;20049;-73
2022/07/07 12:34:16;;;;;;;1.23;0.50;;;;;;;;;;5028552;28;20486;-72
2022/07/07 12:36:43;;;;;;;1.60;0.70;;;;;;;;;;5027277;28;20036;-73
2022/07/07 12:39:08;;;;;;;2.05;0.73;;;;;;;;;;5024678;28;20494;-72
2022/07/07 12:41:36;;;;;;;3.30;1.00;;;;;;;;;;5027738;28;20040;-73
2022/07/07 12:44:22;;;;;;;2.15;0.80;;;;;;;;;;5027684;28;20018;-72
2022/07/07 12:46:48;;;;;;;2.88;0.80;;;;;;;;;;5029238;28;20573;-75
2022/07/07 12:49:14;;;;;;;4.03;0.90;;;;;;;;;;5024791;28;20136;-73
2022/07/07 12:51:42;;;;;;;4.72;1.00;;;;;;;;;;5020264;28;20037;-73
2022/07/07 12:54:19;;;;;;;4.32;1.00;;;;;;;;;;5023747;28;20029;-73
2022/07/07 12:56:44;;;;;;;4.07;1.08;;;;;;;;;;5028970;28;20049;-75
2022/07/07 12:59:21;;;;;;;3.58;0.98;;;;;;;;;;5029817;28;20072;-73
2022/07/07 13:01:52;;;;;;;3.80;1.13;;;;;;;;;;5024470;28;20025;-73
2022/07/07 13:04:18;;;;;;;2.58;0.90;;;;;;;;;;5030172;28;20022;-75
2022/07/07 13:06:45;;;;;;;3.08;1.00;;;;;;;;;;5031518;28;20049;-72
2022/07/07 13:09:11;;;;;;;5.90;1.30;;;;;;;;;;5027974;28;20444;-73
2022/07/07 13:11:36;;;;;;;5.20;1.00;;;;;;;;;;5026331;28;20033;-75
2022/07/07 13:14:02;;;;;;;7.25;1.15;;;;;;;;;;5027212;28;20029;-73
2022/07/07 13:16:27;;;;;;;4.03;1.30;;;;;;;;;;5031845;28;20029;-74
2022/07/07 13:18:52;;;;;;;5.72;1.70;;;;;;;;;;5026711;28;20048;-74
2022/07/07 13:21:18;;;;;;;4.20;0.93;;;;;;;;;;5023869;28;20017;-74
2022/07/07 13:23:43;;;;;;;4.35;1.10;;;;;;;;;;5030488;28;20021;-74
2022/07/07 13:26:10;;;;;;;4.35;1.13;;;;;;;;;;5031309;28;20078;-76
2022/07/07 13:28:36;;;;;;;5.50;1.10;;;;;;;;;;5028519;28;20041;-75
2022/07/07 13:31:01;;;;;;;5.47;1.38;;;;;;;;;;5019588;28;20422;-73
2022/07/07 13:33:27;;;;;;;6.00;1.42;;;;;;;;;;5021723;28;20025;-75
2022/07/07 13:35:52;;;;;;;5.32;1.10;;;;;;;;;;5019341;28;20060;-74
2022/07/07 13:38:19;;;;;;;6.78;1.30;;;;;;;;;;5021192;28;20040;-74
2022/07/07 13:40:44;;;;;;;4.13;1.17;;;;;;;;;;5020679;28;21015;-73
2022/07/07 13:43:10;;;;;;;5.97;1.25;;;;;;;;;;5023809;28;20064;-75
2022/07/07 13:45:35;;;;;;;6.38;1.30;;;;;;;;;;5020283;28;20482;-75
2022/07/07 13:48:01;;;;;;;9.55;1.45;;;;;;;;;;5023753;28;20039;-74
2022/07/07 13:50:28;;;;;;;10.07;1.95;;;;;;;;;;5020109;28;20029;-74
2022/07/07 13:52:53;;;;;;;6.88;1.50;;;;;;;;;;5016775;28;20029;-73
2022/07/07 13:55:19;;;;;;;8.32;1.58;;;;;;;;;;5022907;28;20028;-74
2022/07/07 13:57:45;;;;;;;7.07;1.20;;;;;;;;;;5023155;28;20030;-75
2022/07/07 14:00:12;;;;;;;7.30;1.55;;;;;;;;;;5017899;28;20037;-74
2022/07/07 14:02:38;;;;;;;6.70;1.58;;;;;;;;;;5020038;28;20033;-75
2022/07/07 14:05:04;;;;;;;8.35;1.58;;;;;;;;;;5019691;28;20026;-75
2022/07/07 14:07:30;;;;;;;6.43;1.23;;;;;;;;;;5025531;28;20029;-74
2022/07/07 14:09:57;;;;;;;8.55;1.45;;;;;;;;;;5022796;28;20041;-75
2022/07/07 14:12:22;;;;;;;10.82;1.75;;;;;;;;;;5027041;28;20540;-75
2022/07/07 14:14:47;;;;;;;5.88;1.10;;;;;;;;;;5023177;28;20029;-75
2022/07/07 14:17:13;;;;;;;9.10;1.73;;;;;;;;;;5022334;28;20032;-74
2022/07/07 14:19:38;;;;;;;7.13;1.85;;;;;;;;;;5021864;28;20032;-75
2022/07/07 14:22:04;;;;;;;4.88;0.90;;;;;;;;;;5027743;28;20037;-74
2022/07/07 14:24:29;;;;;;;5.75;1.23;;;;;;;;;;5024422;28;20017;-74
2022/07/07 14:26:55;;;;;;;5.53;1.42;;;;;;;;;;5023234;28;20438;-75
2022/07/07 14:29:20;;;;;;;4.57;1.27;;;;;;;;;;5022624;28;20857;-75
2022/07/07 14:31:46;;;;;;;5.82;1.40;;;;;;;;;;5022353;28;20046;-74
2022/07/07 14:34:12;;;;;;;10.50;1.58;;;;;;;;;;5019124;28;20030;-75
2022/07/07 14:36:37;;;;;;;5.68;1.20;;;;;;;;;;5020803;28;20083;-74
2022/07/07 14:39:03;;;;;;;5.00;1.20;;;;;;;;;;5024215;28;20156;-75
2022/07/07 14:41:29;;;;;;;5.38;1.15;;;;;;;;;;5015856;28;20146;-73
2022/07/07 14:43:54;;;;;;;5.40;1.40;;;;;;;;;;5015870;28;20068;-75
2022/07/07 14:46:20;;;;;;;6.15;1.13;;;;;;;;;;5020236;28;20913;-74
2022/07/07 14:48:45;;;;;;;5.63;1.17;;;;;;;;;;5019964;28;20402;-74